Impacts TAF Board
For situational awareness. Not to be used for flight planning purposes.
IDs:

KIAH - Houston/Bush Intl, TX, US

Issued at 2321 UTC 21 Sep 2021
Updated at 2332 UTC 21 Sep 2021
Potential Impact None Slight Moderate High
Time2253Z 22/00Z 22/01Z 22/02Z 22/03Z 22/04Z 22/05Z 22/06Z 22/07Z 22/08Z 22/09Z 22/10Z 22/11Z 22/12Z>>
Type OBS PRVL PRVL PRVL PRVL PRVL PRVL PRVL PRVL PRVL PRVL PRVL PRVL PRVL
VIS 10 >6 >6 >6 >6 >6 >6 >6 >6 >6 >6 >6 >6 >6
CIG -- -- -- -- -- -- -- -- -- -- -- -- -- --
Cover SCT SCT SCT SCT SCT SCT SCT SCT SCT SCT SCT SCT SCT SCT
FltCat VFR VFR VFR VFR VFR VFR VFR VFR VFR VFR VFR VFR VFR VFR
WX -- VCTS VCTS VCTS -- -- -- -- -- -- -- -- -- --
WDir 320 340 340 340 360 360 360 360 360 360 360 360 360 360
WSpd 5 7 7 7 12 12 12 12 12 12 12 12 12 12
WGst -- -- -- -- -- -- -- -- -- -- -- -- -- --
Raw TAF
KIAH 212321Z 2200/2306 34007KT P6SM VCTS SCT050CB
  FM220300 36012KT P6SM SCT100
  FM221400 02014G22KT P6SM FEW250
  FM222300 03009KT P6SM SKC


Raw METAR
KIAH 212253Z 32005KT 10SM FEW060 SCT150 SCT250 34/21 A2998 RMK AO2 SLP149 T03390211
KIAH 212153Z 31005KT 10SM SCT060 SCT120 BKN250 36/20 A2998 RMK AO2 SLP150 T03560200
KIAH 212053Z 29005KT 10SM FEW060 SCT120 SCT250 35/21 A2999 RMK AO2 SLP154 T03500206 58020

METAR Board
Radar Display
Forecast Discussion
For situational awareness. Not to be used for flight planning purposes.